Lake Worth, Florida
Current Conditions -  °F | °C
As of 10:53 PM on Wednesday 26 Nov 2014 (Local Time) from KPBI Reporting Station
Scattered Clouds Scattered Clouds  
Wind Chill: 56°   Ceiling: Unl
Heat Index: 56°   Visibility: 10mi
Dew Point: 48°   Wind: 10mph
Humidity: 75%   Direction: 330°NNW
Pressure: 30.19"   Gusts: NA
Location:  26.62°N, 80.06°W
Report Text: KPBI 270353Z 33009KT 10SM SCT250 13/09 A3019 RMK AO2 SLP221 T01330089
Loading
Personal Weather Stations






























Interactive Weather Map New forecast layout! Learn more

10-Day Weather Forecast

Advertisements
Track Severe Weather on mobile